Time;durP1;ratioP1;P1;durP2;ratioP2;P2;SDS_P1;SDS_P2;PMS_P1;PMS_P2;Temp;Humidity;BMP_temperature;BMP_pressure;BME280_temperature;BME280_humidity;BME280_pressure;Samples;Min_cycle;Max_cycle;Signal;HPM_P1;HPM_P2
2021/12/01 00:00:56;;;;;;;11.80;2.55;;;;;;;4.20;83.47;99528.81;5041359;28;20116;-80
2021/12/01 00:03:22;;;;;;;10.95;2.10;;;;;;;4.27;83.59;99525.38;5049960;28;20029;-78
2021/12/01 00:05:48;;;;;;;12.18;2.53;;;;;;;4.33;82.83;99527.97;5040682;28;20124;-79
2021/12/01 00:08:14;;;;;;;11.60;2.40;;;;;;;4.37;83.18;99529.72;5036657;28;20041;-78
2021/12/01 00:10:40;;;;;;;10.43;2.80;;;;;;;4.45;83.16;99521.03;5046516;28;20052;-78
2021/12/01 00:13:09;;;;;;;10.60;2.65;;;;;;;4.52;82.61;99517.59;5041601;28;20045;-78
2021/12/01 00:15:34;;;;;;;13.50;2.67;;;;;;;4.59;82.25;99516.72;5036361;28;20384;-78
2021/12/01 00:18:00;;;;;;;12.20;2.35;;;;;;;4.59;82.42;99511.50;5041625;28;20036;-78
2021/12/01 00:20:26;;;;;;;13.05;2.08;;;;;;;4.58;82.14;99508.03;5042051;28;20490;-78
2021/12/01 00:22:51;;;;;;;13.07;2.00;;;;;;;4.60;82.07;99508.00;5039881;28;20038;-78
2021/12/01 00:25:22;;;;;;;11.50;2.30;;;;;;;4.62;82.00;99508.88;5042711;28;20048;-78
2021/12/01 00:27:47;;;;;;;13.15;3.00;;;;;;;4.60;81.55;99505.41;5039637;28;20041;-77
2021/12/01 00:30:13;;;;;;;12.40;3.03;;;;;;;4.59;81.58;99501.06;5041197;28;20041;-79
2021/12/01 00:32:38;;;;;;;11.45;1.80;;;;;;;4.58;81.67;99494.06;5039849;28;20049;-79
2021/12/01 00:35:05;;;;;;;9.45;1.98;;;;;;;4.57;82.17;99494.94;5038959;28;20554;-79
2021/12/01 00:37:31;;;;;;;11.85;2.67;;;;;;;4.54;82.18;99500.16;5043482;28;20056;-78
2021/12/01 00:39:56;;;;;;;6.60;1.80;;;;;;;4.52;82.09;99502.78;5040028;28;20038;-79
2021/12/01 00:42:21;;;;;;;10.95;1.83;;;;;;;4.51;82.09;99495.81;5042822;28;20029;-78
2021/12/01 00:44:47;;;;;;;7.78;1.85;;;;;;;4.48;82.02;99501.03;5040987;28;20041;-79
2021/12/01 00:47:14;;;;;;;9.25;1.58;;;;;;;4.45;81.77;99505.38;5041784;28;20069;-79
2021/12/01 00:49:41;;;;;;;13.60;3.65;;;;;;;4.38;82.37;99497.53;5044289;28;20048;-78
2021/12/01 00:52:06;;;;;;;13.43;2.20;;;;;;;4.38;82.57;99492.31;5042103;28;20128;-79
2021/12/01 00:54:32;;;;;;;13.45;2.28;;;;;;;4.40;82.84;99497.50;5041563;28;20471;-78
2021/12/01 00:56:57;;;;;;;11.30;2.53;;;;;;;4.43;83.13;99496.66;5040169;28;20030;-79
2021/12/01 00:59:23;;;;;;;11.85;2.33;;;;;;;4.51;82.99;99490.59;5049557;28;20091;-79
2021/12/01 01:01:49;;;;;;;9.70;2.20;;;;;;;4.56;82.77;99485.38;5044721;28;20144;-79
2021/12/01 01:04:15;;;;;;;13.88;2.20;;;;;;;4.57;82.60;99484.50;5039687;28;20033;-79
2021/12/01 01:06:42;;;;;;;13.93;2.08;;;;;;;4.60;82.74;99482.75;5043300;28;20099;-78
2021/12/01 01:09:08;;;;;;;14.25;2.40;;;;;;;4.62;82.58;99477.53;5037817;28;20043;-79
2021/12/01 01:17:13;;;;;;;9.15;1.80;;;;;;;4.75;82.08;99468.81;5045988;28;20037;-79
2021/12/01 01:19:39;;;;;;;11.70;2.10;;;;;;;4.79;81.81;99470.59;5043707;28;20032;-78
2021/12/01 01:22:07;;;;;;;10.82;2.15;;;;;;;4.82;81.70;99475.81;5042110;28;20029;-77
2021/12/01 01:24:34;;;;;;;10.10;2.05;;;;;;;4.88;81.65;99474.94;5043944;28;20044;-77
2021/12/01 01:27:00;;;;;;;12.77;1.92;;;;;;;4.94;81.56;99468.81;5042863;28;20041;-78
2021/12/01 01:29:25;;;;;;;9.02;2.22;;;;;;;4.94;81.43;99469.69;5045344;28;20044;-78
2021/12/01 01:31:55;;;;;;;10.48;1.77;;;;;;;5.01;81.27;99449.66;5046742;28;20043;-77
2021/12/01 01:34:21;;;;;;;9.73;1.58;;;;;;;5.02;80.95;99454.00;5048228;28;20032;-78
2021/12/01 01:36:46;;;;;;;9.18;1.38;;;;;;;5.00;80.57;99453.13;5042154;28;20037;-78
2021/12/01 01:39:12;;;;;;;12.23;2.22;;;;;;;5.06;81.00;99455.75;5045776;28;20048;-78
2021/12/01 01:41:37;;;;;;;9.60;2.13;;;;;;;5.09;80.63;99447.91;5047095;28;20387;-78
2021/12/01 01:44:03;;;;;;;11.13;2.10;;;;;;;5.16;80.55;99444.41;5045605;28;20033;-78
2021/12/01 01:46:33;;;;;;;12.05;2.80;;;;;;;5.21;80.57;99447.00;5046740;28;20032;-79
2021/12/01 01:49:06;;;;;;;14.88;2.40;;;;;;;5.24;80.08;99437.41;5044550;28;20040;-78
2021/12/01 01:51:32;;;;;;;12.77;1.70;;;;;;;5.26;79.84;99434.78;5042063;28;20091;-78
2021/12/01 01:53:58;;;;;;;11.07;1.80;;;;;;;5.26;79.24;99426.94;5045275;28;20045;-78
2021/12/01 01:56:25;;;;;;;8.63;1.45;;;;;;;5.29;79.53;99432.16;5042376;28;20129;-78
2021/12/01 01:58:50;;;;;;;10.77;2.22;;;;;;;5.28;79.61;99415.59;5044273;28;20036;-79
2021/12/01 02:04:03;;;;;;;11.00;1.60;;;;;;;5.33;79.08;99412.09;5042637;28;20087;-79
2021/12/01 02:06:28;;;;;;;7.72;1.88;;;;;;;5.36;79.44;99404.22;5043271;28;20029;-79
2021/12/01 02:08:57;;;;;;;9.95;1.73;;;;;;;5.40;79.53;99405.97;5044698;28;20402;-78
2021/12/01 02:11:23;;;;;;;13.40;2.67;;;;;;;5.41;79.25;99400.72;5049283;28;20037;-80
2021/12/01 02:13:50;;;;;;;10.18;1.60;;;;;;;5.41;79.48;99397.25;5043957;28;20071;-79
2021/12/01 02:16:17;;;;;;;9.57;2.15;;;;;;;5.41;79.45;99392.00;5048427;28;20032;-78
2021/12/01 02:18:43;;;;;;;11.20;2.45;;;;;;;5.47;79.60;99384.13;5050963;28;20103;-79
2021/12/01 02:21:13;;;;;;;12.32;2.85;;;;;;;5.51;79.34;99380.63;5039511;28;20495;-78
2021/12/01 02:23:42;;;;;;;9.82;2.85;;;;;;;5.56;79.07;99371.00;5044959;28;20034;-79
2021/12/01 02:26:09;;;;;;;9.15;1.83;;;;;;;5.60;79.11;99372.72;5045152;28;20381;-79
2021/12/01 02:28:37;;;;;;;9.75;2.17;;;;;;;5.59;78.49;99365.75;5044948;28;20127;-78
2021/12/01 02:31:03;;;;;;;15.13;2.42;;;;;;;5.60;79.06;99366.63;5041440;28;20038;-79
2021/12/01 02:33:29;;;;;;;20.50;2.63;;;;;;;5.60;79.25;99364.00;5040222;28;20510;-78
2021/12/01 02:35:55;;;;;;;10.23;2.10;;;;;;;5.61;79.40;99358.78;5056403;28;20026;-78
2021/12/01 02:38:22;;;;;;;12.40;2.13;;;;;;;5.69;79.36;99357.00;5043724;28;20048;-78
2021/12/01 02:40:50;;;;;;;13.65;1.77;;;;;;;5.68;78.98;99357.84;5040617;28;20044;-78
2021/12/01 02:43:17;;;;;;;5.68;1.35;;;;;;;5.70;78.87;99358.72;5044084;28;20040;-78
2021/12/01 02:45:43;;;;;;;9.95;1.80;;;;;;;5.69;79.25;99357.00;5040327;28;20041;-78
2021/12/01 02:48:12;;;;;;;9.43;1.67;;;;;;;5.76;79.61;99362.19;5057480;28;20079;-78
2021/12/01 02:50:37;;;;;;;9.38;1.80;;;;;;;5.76;79.58;99357.81;5048571;28;20047;-79
2021/12/01 02:53:03;;;;;;;8.70;2.08;;;;;;;5.75;79.14;99355.22;5043286;28;20030;-78
2021/12/01 02:55:32;;;;;;;9.25;1.65;;;;;;;5.76;79.75;99356.94;5040989;28;20032;-78
2021/12/01 02:57:59;;;;;;;7.13;1.60;;;;;;;5.76;80.11;99357.81;5042418;28;20406;-78
2021/12/01 03:00:25;;;;;;;8.50;1.52;;;;;;;5.81;80.00;99353.41;5042146;28;20035;-78
2021/12/01 03:02:52;;;;;;;9.02;2.13;;;;;;;5.78;79.92;99355.19;5057827;28;20140;-78
2021/12/01 03:05:18;;;;;;;7.78;1.52;;;;;;;5.71;80.41;99350.00;5042339;28;20033;-79
2021/12/01 03:07:44;;;;;;;12.20;1.80;;;;;;;5.75;80.73;99344.75;5043907;28;20037;-78
2021/12/01 03:10:12;;;;;;;7.20;1.50;;;;;;;5.78;80.75;99342.09;5048640;28;20376;-79
2021/12/01 03:12:39;;;;;;;9.02;1.48;;;;;;;5.79;81.02;99339.50;5047167;28;20044;-78
2021/12/01 03:15:07;;;;;;;9.07;1.73;;;;;;;5.72;81.82;99337.78;5043439;28;20037;-78
2021/12/01 03:17:32;;;;;;;8.20;1.67;;;;;;;5.74;81.48;99332.50;5051210;28;20411;-78
2021/12/01 03:19:59;;;;;;;7.13;1.40;;;;;;;5.70;82.29;99332.53;5038071;28;20042;-79
2021/12/01 03:22:25;;;;;;;8.13;1.20;;;;;;;5.70;82.53;99322.06;5044856;28;20036;-78
2021/12/01 03:24:53;;;;;;;8.20;2.08;;;;;;;5.74;82.13;99322.03;5036582;28;20037;-79
2021/12/01 03:27:19;;;;;;;7.40;1.10;;;;;;;5.69;82.67;99315.09;5035879;28;20067;-78
2021/12/01 03:29:49;;;;;;;8.23;1.10;;;;;;;5.64;82.94;99316.00;5035651;28;20025;-78
2021/12/01 03:32:15;;;;;;;7.72;1.42;;;;;;;5.59;83.49;99313.41;5039678;28;20056;-78
2021/12/01 03:34:43;;;;;;;8.30;1.30;;;;;;;5.62;83.22;99294.22;5038712;28;20029;-79
2021/12/01 03:37:09;;;;;;;8.63;1.48;;;;;;;5.59;83.99;99295.09;5040696;28;20108;-79
2021/12/01 03:39:35;;;;;;;7.78;1.20;;;;;;;5.57;84.36;99289.00;5040404;28;20029;-78
2021/12/01 03:42:01;;;;;;;9.18;1.45;;;;;;;5.60;84.54;99286.34;5043202;28;20116;-78
2021/12/01 03:44:26;;;;;;;9.95;1.70;;;;;;;5.62;84.71;99275.88;5043357;28;20041;-78
2021/12/01 03:46:52;;;;;;;9.38;1.42;;;;;;;5.62;84.20;99271.50;5040597;28;20045;-78
2021/12/01 03:49:17;;;;;;;8.73;1.20;;;;;;;5.61;84.59;99264.56;5035290;28;20043;-78
2021/12/01 03:51:43;;;;;;;12.48;1.70;;;;;;;5.63;84.62;99262.81;5036544;28;20410;-78
2021/12/01 03:54:08;;;;;;;4.60;1.25;;;;;;;5.64;84.88;99256.69;5040716;28;20033;-78
2021/12/01 03:56:34;;;;;;;7.75;1.60;;;;;;;5.62;85.02;99255.81;5039792;28;20388;-79
2021/12/01 03:59:00;;;;;;;6.57;1.00;;;;;;;5.68;85.39;99240.06;5036460;28;20131;-78
2021/12/01 04:01:26;;;;;;;5.60;1.33;;;;;;;5.71;85.51;99245.28;5038521;28;20687;-78
2021/12/01 04:03:52;;;;;;;9.27;1.63;;;;;;;5.75;85.65;99230.41;5046149;28;20051;-78
2021/12/01 04:06:17;;;;;;;7.85;1.52;;;;;;;5.73;85.49;99219.09;5034429;28;20045;-78
2021/12/01 04:08:43;;;;;;;8.98;2.17;;;;;;;5.76;85.58;99216.44;5036922;28;20060;-78
2021/12/01 04:11:08;;;;;;;6.90;1.63;;;;;;;5.78;85.77;99216.44;5039695;28;20037;-78
2021/12/01 04:13:33;;;;;;;8.55;2.15;;;;;;;5.80;85.61;99218.16;5051869;28;20487;-78
2021/12/01 04:15:59;;;;;;;9.15;1.70;;;;;;;5.84;85.72;99209.41;5035545;28;20033;-78
2021/12/01 04:18:24;;;;;;;4.50;1.15;;;;;;;5.87;85.91;99201.53;5039408;28;20551;-78
2021/12/01 04:20:50;;;;;;;6.00;1.17;;;;;;;5.86;86.19;99193.69;5034279;28;20100;-79
2021/12/01 04:23:15;;;;;;;9.60;2.20;;;;;;;5.86;86.10;99191.91;5044225;28;20037;-78
2021/12/01 04:25:41;;;;;;;6.80;1.73;;;;;;;5.90;86.28;99175.31;5037322;28;20427;-78
2021/12/01 04:28:06;;;;;;;6.03;1.30;;;;;;;5.90;86.80;99179.69;5039171;28;20059;-78
2021/12/01 04:30:32;;;;;;;6.15;1.20;;;;;;;5.95;86.17;99169.19;5038313;28;20061;-79
2021/12/01 04:32:57;;;;;;;6.00;1.35;;;;;;;5.96;86.19;99156.09;5039913;28;20038;-78
2021/12/01 04:35:25;;;;;;;9.57;2.95;;;;;;;5.98;86.72;99154.31;5038280;28;20033;-78
2021/12/01 04:37:52;;;;;;;7.10;1.92;;;;;;;6.00;87.01;99149.06;5038188;28;20068;-78
2021/12/01 04:40:18;;;;;;;5.95;1.77;;;;;;;5.98;87.06;99148.22;5040843;28;20120;-79
2021/12/01 04:42:44;;;;;;;5.28;1.63;;;;;;;6.01;87.02;99148.19;5042636;28;20471;-77
2021/12/01 04:45:17;;;;;;;7.75;1.83;;;;;;;6.06;86.87;99142.03;5039948;28;20051;-77
2021/12/01 04:48:04;;;;;;;5.03;1.40;;;;;;;6.10;86.86;99133.25;5044152;28;20037;-77
2021/12/01 04:50:29;;;;;;;4.35;1.73;;;;;;;6.12;87.01;99125.38;5044271;28;20026;-76
2021/12/01 04:52:57;;;;;;;4.10;1.50;;;;;;;6.13;86.85;99120.13;5045279;28;20108;-77
2021/12/01 04:55:24;;;;;;;8.13;2.13;;;;;;;6.08;87.20;99107.97;5048121;28;20033;-77
2021/12/01 04:57:49;;;;;;;3.97;1.67;;;;;;;6.13;87.11;99114.00;5045920;28;20049;-76
2021/12/01 05:00:20;;;;;;;7.40;3.38;;;;;;;6.20;87.05;99106.94;5039220;28;20033;-77
2021/12/01 05:02:46;;;;;;;7.10;2.22;;;;;;;6.20;86.70;99104.34;5041954;28;20036;-76
2021/12/01 05:05:11;;;;;;;7.57;1.95;;;;;;;6.21;86.59;99098.19;5044971;28;20521;-76
2021/12/01 05:07:36;;;;;;;4.50;1.65;;;;;;;6.27;86.69;99091.16;5045657;28;20041;-78
2021/12/01 05:10:04;;;;;;;4.00;1.90;;;;;;;6.33;86.70;99092.81;5044437;28;20040;-77
2021/12/01 05:12:29;;;;;;;4.47;1.90;;;;;;;6.27;86.32;99077.19;5041801;28;20479;-77
2021/12/01 05:14:55;;;;;;;3.28;1.80;;;;;;;6.28;86.49;99071.91;5043586;28;20107;-77
2021/12/01 05:17:20;;;;;;;6.15;2.10;;;;;;;6.27;86.35;99064.09;5040725;28;20041;-77
2021/12/01 05:19:47;;;;;;;5.50;1.92;;;;;;;6.26;86.33;99070.19;5046393;28;20648;-78
2021/12/01 05:22:12;;;;;;;5.40;2.55;;;;;;;6.26;86.15;99065.84;5045426;28;20053;-77
2021/12/01 05:24:37;;;;;;;4.43;2.22;;;;;;;6.24;86.07;99059.75;5044994;28;20037;-77
2021/12/01 05:27:04;;;;;;;7.22;3.13;;;;;;;6.30;86.22;99050.94;5050206;28;20037;-78
2021/12/01 05:29:30;;;;;;;4.65;2.30;;;;;;;6.20;86.56;99050.19;5044320;28;20041;-76
2021/12/01 05:31:56;;;;;;;8.45;2.83;;;;;;;6.21;86.75;99045.81;5048160;28;20037;-77
2021/12/01 05:34:22;;;;;;;4.63;2.33;;;;;;;6.25;86.70;99042.28;5058115;28;20041;-77
2021/12/01 05:36:47;;;;;;;4.03;2.38;;;;;;;6.29;86.87;99043.97;5044427;28;20037;-78
2021/12/01 05:39:13;;;;;;;3.97;2.33;;;;;;;6.29;86.22;99033.50;5048317;28;20021;-77
2021/12/01 05:41:38;;;;;;;5.13;2.53;;;;;;;6.25;86.27;99032.66;5040984;28;20044;-77
2021/12/01 05:44:04;;;;;;;6.22;2.60;;;;;;;6.25;86.59;99034.41;5048839;28;20120;-77
2021/12/01 05:46:30;;;;;;;7.28;2.50;;;;;;;6.35;85.80;99023.78;5044668;28;20056;-76
2021/12/01 05:48:55;;;;;;;5.70;2.75;;;;;;;6.41;86.22;99028.06;5045019;28;20041;-77
2021/12/01 05:51:21;;;;;;;5.55;2.42;;;;;;;6.35;86.43;99015.06;5045973;28;20037;-77
2021/12/01 05:53:48;;;;;;;4.53;2.65;;;;;;;6.39;86.18;99019.34;5043576;28;20372;-77
2021/12/01 05:56:14;;;;;;;13.20;5.10;;;;;;;6.44;86.45;99019.31;5044171;28;20029;-77
2021/12/01 05:58:40;;;;;;;19.02;6.03;;;;;;;6.48;86.96;99003.53;5041536;28;20041;-77
2021/12/01 06:01:05;;;;;;;10.60;5.70;;;;;;;6.54;86.75;99013.06;5043962;28;20043;-78
2021/12/01 06:03:31;;;;;;;10.73;5.05;;;;;;;6.61;86.46;99008.59;5044034;28;20124;-77
2021/12/01 06:05:56;;;;;;;20.15;13.93;;;;;;;6.48;86.16;98998.28;5043205;28;20048;-77
2021/12/01 06:08:22;;;;;;;6.35;3.55;;;;;;;6.48;86.75;98993.03;5054249;28;20072;-78
2021/12/01 06:10:47;;;;;;;3.25;2.08;;;;;;;6.54;86.75;98986.84;5048139;28;20530;-77
2021/12/01 06:13:17;;;;;;;9.75;5.65;;;;;;;6.53;87.80;98987.75;5041077;28;20120;-78
2021/12/01 06:15:44;;;;;;;10.52;5.72;;;;;;;6.55;87.92;98984.22;5037364;28;20060;-78
2021/12/01 06:18:10;;;;;;;8.35;3.70;;;;;;;6.59;88.19;98985.88;5035807;28;20037;-77
2021/12/01 06:20:36;;;;;;;3.47;1.45;;;;;;;6.63;87.71;98978.84;5037743;28;20060;-77
2021/12/01 06:23:01;;;;;;;2.22;1.00;;;;;;;6.58;86.80;98971.06;5039072;28;20573;-78
2021/12/01 06:25:26;;;;;;;2.08;0.77;;;;;;;6.56;87.43;98969.34;5042925;28;20029;-77
2021/12/01 06:27:54;;;;;;;1.30;0.55;;;;;;;6.48;86.97;98966.84;5038556;28;20037;-78
2021/12/01 06:30:21;;;;;;;2.92;0.75;;;;;;;6.44;87.45;98965.13;5038250;28;20029;-78
2021/12/01 06:32:46;;;;;;;2.03;0.68;;;;;;;6.47;87.21;98961.59;5043365;28;20171;-78
2021/12/01 06:35:11;;;;;;;3.03;0.60;;;;;;;6.46;87.51;98952.88;5050258;28;20108;-77
2021/12/01 06:37:37;;;;;;;2.67;0.88;;;;;;;6.41;87.60;98949.47;5043398;28;20073;-77
2021/12/01 06:40:04;;;;;;;1.85;0.40;;;;;;;6.42;86.98;98943.34;5039366;28;20044;-78
2021/12/01 06:42:29;;;;;;;1.60;0.70;;;;;;;6.34;86.72;98940.84;5043034;28;20037;-78
2021/12/01 06:44:54;;;;;;;1.27;0.43;;;;;;;6.36;86.99;98935.56;5040744;28;20041;-78
2021/12/01 06:47:20;;;;;;;1.73;0.60;;;;;;;6.29;87.09;98928.69;5044811;28;20029;-77
2021/12/01 06:49:45;;;;;;;0.45;0.30;;;;;;;6.33;86.81;98932.97;5038383;28;20118;-77
2021/12/01 06:52:13;;;;;;;2.38;0.40;;;;;;;6.31;86.56;98930.41;5039627;28;20037;-78
2021/12/01 06:54:39;;;;;;;1.58;0.57;;;;;;;6.29;86.79;98920.84;5042321;28;20095;-78
2021/12/01 06:57:04;;;;;;;2.60;1.10;;;;;;;6.26;86.45;98923.47;5042757;28;20037;-77
2021/12/01 06:59:30;;;;;;;2.58;0.80;;;;;;;6.29;86.84;98920.84;5039809;28;20040;-77
2021/12/01 07:01:55;;;;;;;1.98;0.60;;;;;;;6.27;86.23;98919.97;5039701;28;20465;-77
2021/12/01 07:04:20;;;;;;;1.73;0.60;;;;;;;6.27;86.23;98926.09;5042686;28;20029;-77
2021/12/01 07:06:46;;;;;;;1.63;0.50;;;;;;;6.28;86.39;98916.47;5036376;28;20049;-77
2021/12/01 07:09:17;;;;;;;3.40;1.00;;;;;;;6.29;86.25;98912.97;5038708;28;20457;-78
2021/12/01 07:11:43;;;;;;;2.15;0.65;;;;;;;6.22;86.48;98911.31;5039824;28;20037;-77
2021/12/01 07:14:08;;;;;;;3.15;1.38;;;;;;;6.25;87.22;98912.13;5042298;28;20501;-77
2021/12/01 07:16:33;;;;;;;1.58;0.50;;;;;;;6.17;86.90;98902.66;5038492;28;20033;-78
2021/12/01 07:18:59;;;;;;;1.80;0.50;;;;;;;6.14;87.19;98904.44;5038378;28;20041;-77
2021/12/01 07:21:24;;;;;;;1.42;0.50;;;;;;;6.10;87.11;98902.75;5038346;28;20045;-77
2021/12/01 07:23:49;;;;;;;2.10;0.60;;;;;;;6.13;87.48;98912.31;5039461;28;20430;-78
2021/12/01 07:26:15;;;;;;;1.05;0.40;;;;;;;6.10;87.96;98913.25;5041013;28;20478;-77
2021/12/01 07:28:40;;;;;;;2.53;0.65;;;;;;;6.09;87.86;98913.25;5044272;28;20045;-77
2021/12/01 07:31:05;;;;;;;1.70;0.50;;;;;;;6.10;87.71;98918.47;5039058;28;20026;-78
2021/12/01 07:33:32;;;;;;;1.80;0.77;;;;;;;6.10;88.00;98930.69;5044793;28;20426;-77
2021/12/01 07:35:57;;;;;;;3.40;0.90;;;;;;;6.04;88.39;98907.22;5039739;28;20034;-77
2021/12/01 07:38:22;;;;;;;1.33;0.60;;;;;;;5.91;88.85;98902.09;5044880;28;20407;-77
2021/12/01 07:40:48;;;;;;;2.10;0.80;;;;;;;5.95;88.96;98892.50;5041374;28;20041;-78
2021/12/01 07:43:13;;;;;;;3.38;0.93;;;;;;;5.97;88.80;98890.69;5039282;28;20492;-77
2021/12/01 07:45:43;;;;;;;2.65;1.00;;;;;;;5.93;88.82;98892.50;5040043;28;20041;-77
2021/12/01 07:48:13;;;;;;;2.03;0.70;;;;;;;5.94;88.96;98880.28;5038523;28;20060;-77
2021/12/01 07:50:38;;;;;;;1.67;0.90;;;;;;;5.95;89.29;98876.78;5047700;28;20095;-77
2021/12/01 07:53:03;;;;;;;3.42;1.58;;;;;;;5.98;89.60;98863.66;5054235;28;20511;-77
2021/12/01 07:55:29;;;;;;;15.57;6.95;;;;;;;6.20;91.35;98856.31;5047703;28;20055;-77
2021/12/01 07:57:54;;;;;;;5.07;2.08;;;;;;;6.29;89.97;98845.72;5042888;28;20029;-79
2021/12/01 08:00:19;;;;;;;5.13;1.88;;;;;;;6.33;89.07;98841.28;5043043;28;20039;-77
2021/12/01 08:02:45;;;;;;;3.83;1.23;;;;;;;6.32;87.83;98834.31;5041503;28;20029;-79
2021/12/01 08:05:11;;;;;;;2.28;1.17;;;;;;;6.19;88.60;98841.50;5038997;28;20067;-77
2021/12/01 08:07:38;;;;;;;2.85;0.60;;;;;;;6.23;88.08;98840.56;5037675;28;20041;-77
2021/12/01 08:10:05;;;;;;;3.10;1.05;;;;;;;6.12;88.92;98838.09;5038888;28;20033;-77
2021/12/01 08:12:33;;;;;;;1.95;0.98;;;;;;;6.03;89.88;98843.50;5045710;28;20037;-77
2021/12/01 08:14:59;;;;;;;2.80;1.20;;;;;;;6.04;89.66;98834.72;5051213;28;20048;-77
2021/12/01 08:17:24;;;;;;;2.08;1.20;;;;;;;6.06;90.61;98817.25;5038765;28;20383;-76
2021/12/01 08:19:49;;;;;;;2.67;1.05;;;;;;;6.00;89.83;98817.34;5038145;28;20380;-76
2021/12/01 08:22:15;;;;;;;2.70;1.08;;;;;;;6.05;89.63;98804.16;5038404;28;20553;-77
2021/12/01 08:24:40;;;;;;;2.95;1.00;;;;;;;6.04;90.13;98798.06;5038415;28;20037;-76
2021/12/01 08:27:05;;;;;;;3.15;1.20;;;;;;;6.04;89.79;98799.84;5043235;28;20044;-76
2021/12/01 08:29:31;;;;;;;4.38;1.10;;;;;;;6.09;90.29;98801.47;5039328;28;20137;-77
2021/12/01 08:31:56;;;;;;;2.15;1.00;;;;;;;6.13;89.53;98800.56;5036664;28;20037;-76
2021/12/01 08:34:22;;;;;;;3.35;1.17;;;;;;;6.18;89.56;98799.59;5043230;28;20045;-76
2021/12/01 08:36:47;;;;;;;3.10;1.30;;;;;;;6.20;89.06;98803.06;5038343;28;20115;-77
2021/12/01 08:39:12;;;;;;;5.03;2.15;;;;;;;6.18;89.29;98802.22;5038922;28;20079;-76
2021/12/01 08:41:38;;;;;;;1.85;1.00;;;;;;;6.21;88.65;98787.34;5039202;28;20038;-76
2021/12/01 08:44:03;;;;;;;4.72;2.15;;;;;;;6.31;88.26;98796.78;5041844;28;20033;-77
2021/12/01 08:46:29;;;;;;;6.88;2.97;;;;;;;6.46;88.48;98790.41;5030764;28;20044;-76
2021/12/01 08:48:56;;;;;;;3.13;1.35;;;;;;;6.48;87.33;98779.91;5040070;28;20052;-75
2021/12/01 08:51:22;;;;;;;3.42;1.42;;;;;;;6.50;86.94;98780.75;5035816;28;20075;-77
2021/12/01 08:53:47;;;;;;;2.10;1.20;;;;;;;6.54;87.07;98772.78;5038269;28;20452;-76
2021/12/01 08:56:14;;;;;;;3.03;1.60;;;;;;;6.57;86.13;98783.19;5038394;28;20036;-76
2021/12/01 08:58:40;;;;;;;4.85;1.50;;;;;;;6.66;86.22;98779.56;5037282;28;20538;-77
2021/12/01 09:01:05;;;;;;;2.30;1.30;;;;;;;6.66;86.24;98776.09;5037271;28;20037;-76
2021/12/01 09:03:30;;;;;;;3.40;1.35;;;;;;;6.70;86.23;98770.72;5037777;28;20037;-76
2021/12/01 09:05:56;;;;;;;2.63;1.27;;;;;;;6.72;85.78;98762.84;5041801;28;20049;-76
2021/12/01 09:08:23;;;;;;;4.20;2.40;;;;;;;6.80;85.95;98766.19;5040031;28;20033;-77
2021/12/01 09:10:52;;;;;;;2.92;1.48;;;;;;;6.80;84.79;98759.19;5038384;28;20545;-77
2021/12/01 09:13:19;;;;;;;5.05;2.58;;;;;;;6.86;84.99;98758.19;5037488;28;20029;-77
2021/12/01 09:15:44;;;;;;;3.03;1.63;;;;;;;6.89;84.34;98758.16;5037818;28;20037;-76
2021/12/01 09:18:10;;;;;;;4.60;1.60;;;;;;;6.92;83.52;98752.84;5036492;28;20033;-77
2021/12/01 09:20:36;;;;;;;3.80;1.48;;;;;;;7.02;83.60;98738.66;5035984;28;20048;-76
2021/12/01 09:23:03;;;;;;;4.22;1.40;;;;;;;7.09;83.91;98728.88;5035710;28;20038;-77
2021/12/01 09:25:29;;;;;;;2.80;1.42;;;;;;;7.00;82.30;98719.47;5040031;28;20056;-77
2021/12/01 09:27:54;;;;;;;3.30;1.52;;;;;;;7.11;82.65;98710.50;5043893;28;20095;-76
2021/12/01 09:30:20;;;;;;;2.38;0.95;;;;;;;7.10;81.67;98708.75;5042623;28;20131;-77
2021/12/01 09:32:45;;;;;;;3.05;1.42;;;;;;;7.02;81.78;98720.31;5042733;28;20041;-78
2021/12/01 09:35:12;;;;;;;4.82;1.80;;;;;;;7.21;81.85;98712.03;5049347;28;20028;-77
2021/12/01 09:37:38;;;;;;;3.53;1.50;;;;;;;7.30;80.71;98706.56;5051211;28;20029;-76
2021/12/01 09:40:12;;;;;;;2.08;0.95;;;;;;;7.28;80.48;98703.13;5051240;28;20101;-76
2021/12/01 09:42:38;;;;;;;2.83;1.40;;;;;;;7.28;80.58;98697.88;5038062;28;20038;-76
2021/12/01 09:45:04;;;;;;;2.67;1.10;;;;;;;7.31;79.82;98705.69;5046449;28;20045;-76
2021/12/01 09:47:30;;;;;;;4.05;1.50;;;;;;;7.35;79.98;98691.59;5040224;28;20040;-77
2021/12/01 09:49:55;;;;;;;2.67;1.30;;;;;;;7.32;80.21;98682.94;5044671;28;20095;-77
2021/12/01 09:52:21;;;;;;;3.20;1.55;;;;;;;7.41;79.17;98677.47;5041383;28;20032;-77
2021/12/01 09:54:48;;;;;;;2.63;1.27;;;;;;;7.49;79.52;98658.91;5041628;28;20411;-76
2021/12/01 09:57:13;;;;;;;2.85;1.17;;;;;;;7.51;78.70;98662.38;5038325;28;20037;-76
2021/12/01 09:59:40;;;;;;;3.90;1.17;;;;;;;7.54;78.03;98646.53;5041864;28;20521;-78
2021/12/01 10:02:06;;;;;;;3.65;1.20;;;;;;;7.57;78.24;98633.34;5044841;28;20083;-77
2021/12/01 10:04:31;;;;;;;2.30;1.10;;;;;;;7.65;77.56;98623.50;5044076;28;20056;-77
2021/12/01 10:07:17;;;;;;;3.55;1.15;;;;;;;7.64;77.49;98621.78;5056998;28;20144;-77
2021/12/01 10:09:52;;;;;;;2.00;0.90;;;;;;;7.67;77.30;98621.72;5044266;28;20037;-76
2021/12/01 10:12:18;;;;;;;2.05;0.80;;;;;;;7.57;77.50;98622.84;5042452;28;20045;-78
2021/12/01 10:14:45;;;;;;;1.95;0.93;;;;;;;7.60;76.95;98612.28;5044842;28;20029;-77
2021/12/01 10:17:11;;;;;;;2.85;1.00;;;;;;;7.73;76.80;98600.56;5045034;28;20037;-76
2021/12/01 10:19:36;;;;;;;1.80;0.75;;;;;;;7.77;76.91;98599.56;5056260;28;20128;-77
2021/12/01 10:22:08;;;;;;;3.05;1.40;;;;;;;7.70;76.21;98595.38;5054042;28;20033;-77
2021/12/01 10:24:36;;;;;;;4.35;1.08;;;;;;;7.81;76.39;98592.50;5044924;28;20537;-76
2021/12/01 10:27:08;;;;;;;2.17;1.02;;;;;;;7.87;75.82;98585.31;5043731;28;20063;-77
2021/12/01 10:29:41;;;;;;;3.08;1.25;;;;;;;7.86;75.53;98586.22;5039828;28;20065;-77
2021/12/01 10:32:07;;;;;;;4.57;1.20;;;;;;;7.93;75.62;98573.78;5045190;28;20037;-77
2021/12/01 10:34:40;;;;;;;2.25;0.93;;;;;;;8.00;74.98;98577.09;5053219;28;20376;-77
2021/12/01 10:40:09;;;;;;;3.88;1.02;;;;;;;8.04;74.48;98570.84;5044184;28;20036;-77
2021/12/01 10:42:55;;;;;;;2.83;1.30;;;;;;;8.14;74.04;98559.19;5042735;28;20079;-77
2021/12/01 10:45:28;;;;;;;2.28;0.90;;;;;;;8.19;73.51;98541.53;5040960;28;20048;-77
2021/12/01 10:47:54;;;;;;;2.10;0.90;;;;;;;8.21;72.44;98531.84;5040751;28;20479;-78
2021/12/01 10:50:23;;;;;;;6.25;2.17;;;;;;;8.45;78.31;98527.66;5044029;28;20036;-78
2021/12/01 10:52:52;;;;;;;9.13;2.35;;;;;;;8.80;74.63;98527.50;5043971;28;20566;-77
2021/12/01 10:55:20;;;;;;;4.55;1.58;;;;;;;8.91;73.19;98533.31;5041893;28;20523;-77
2021/12/01 10:57:49;;;;;;;3.00;0.75;;;;;;;8.84;70.92;98529.16;5047383;28;20032;-77
2021/12/01 11:00:26;;;;;;;3.45;0.80;;;;;;;8.65;71.52;98532.34;5044964;28;20119;-76
2021/12/01 11:02:53;;;;;;;1.85;0.77;;;;;;;8.45;71.82;98526.81;5047192;28;20032;-77
2021/12/01 11:05:33;;;;;;;2.00;0.63;;;;;;;8.42;71.90;98505.88;5047019;28;20029;-78
2021/12/01 11:08:19;;;;;;;2.22;0.65;;;;;;;8.37;71.54;98497.25;5046667;28;20128;-78
2021/12/01 11:10:48;;;;;;;1.73;0.50;;;;;;;8.30;72.21;98471.13;5039112;28;20041;-77
2021/12/01 11:13:14;;;;;;;1.55;0.77;;;;;;;8.28;72.49;98480.84;5061885;28;20047;-77
2021/12/01 11:15:44;;;;;;;2.45;0.60;;;;;;;8.31;72.87;98472.00;5046036;28;20052;-77
2021/12/01 11:18:17;;;;;;;1.45;0.70;;;;;;;8.27;73.28;98458.06;5043228;28;20118;-77
2021/12/01 11:20:48;;;;;;;1.33;0.60;;;;;;;8.22;72.41;98453.88;5041171;28;20525;-77
2021/12/01 11:23:15;;;;;;;1.90;0.70;;;;;;;8.23;72.80;98469.59;5049852;28;20033;-78
2021/12/01 11:25:42;;;;;;;2.67;0.90;;;;;;;8.18;73.02;98471.50;5040709;28;20036;-78
2021/12/01 11:28:09;;;;;;;1.95;0.70;;;;;;;8.19;73.95;98465.31;5059006;28;20048;-78
2021/12/01 11:30:40;;;;;;;1.67;0.82;;;;;;;8.16;74.85;98465.41;5044079;28;20072;-78
2021/12/01 11:33:05;;;;;;;1.45;0.70;;;;;;;8.06;75.99;98458.72;5041493;28;20033;-77
2021/12/01 11:35:30;;;;;;;1.48;0.63;;;;;;;7.85;76.86;98450.53;5022965;28;20028;-77
2021/12/01 11:37:57;;;;;;;2.83;0.60;;;;;;;7.76;77.32;98452.59;5042151;28;20085;-77
2021/12/01 11:40:27;;;;;;;1.77;0.70;;;;;;;7.75;77.58;98456.94;5043208;28;20037;-78
2021/12/01 11:42:52;;;;;;;1.65;0.70;;;;;;;7.74;77.36;98449.13;5047468;28;20452;-77
2021/12/01 11:45:18;;;;;;;3.83;0.75;;;;;;;7.76;77.55;98432.44;5044801;28;20043;-77
2021/12/01 11:47:47;;;;;;;1.70;0.70;;;;;;;7.77;77.22;98439.38;5044119;28;20049;-78